Time;durP1;ratioP1;P1;durP2;ratioP2;P2;SDS_P1;SDS_P2;PMS_P1;PMS_P2;Temp;Humidity;BMP_temperature;BMP_pressure;BME280_temperature;BME280_humidity;BME280_pressure;Samples;Min_cycle;Max_cycle;Signal;HPM_P1;HPM_P2
2023/06/08 00:01:25;;;;;;;13.80;9.90;;;;;;;;;;4974834;28;20038;-74
2023/06/08 00:03:51;;;;;;;14.45;10.02;;;;;;;;;;4979120;28;20041;-74
2023/06/08 00:06:16;;;;;;;15.35;9.65;;;;;;;;;;4977636;28;20026;-74
2023/06/08 00:08:43;;;;;;;12.70;8.20;;;;;;;;;;4985809;28;20027;-74
2023/06/08 00:11:10;;;;;;;11.85;8.90;;;;;;;;;;4983055;28;20527;-74
2023/06/08 00:13:36;;;;;;;12.13;9.05;;;;;;;;;;5007803;28;20045;-74
2023/06/08 00:16:03;;;;;;;14.73;8.73;;;;;;;;;;4988221;28;20509;-74
2023/06/08 00:18:30;;;;;;;19.88;9.18;;;;;;;;;;4963964;28;20584;-74
2023/06/08 00:20:56;;;;;;;15.20;8.43;;;;;;;;;;4972712;28;20055;-74
2023/06/08 00:23:22;;;;;;;11.20;8.55;;;;;;;;;;4978840;28;20453;-75
2023/06/08 00:25:47;;;;;;;13.25;8.90;;;;;;;;;;4973220;28;20581;-74
2023/06/08 00:28:13;;;;;;;11.57;8.02;;;;;;;;;;4971042;28;20022;-74
2023/06/08 00:30:38;;;;;;;13.85;8.02;;;;;;;;;;4978243;28;20035;-74
2023/06/08 00:33:04;;;;;;;15.52;8.35;;;;;;;;;;4981478;28;20038;-74
2023/06/08 00:35:30;;;;;;;13.32;8.23;;;;;;;;;;4992425;28;20022;-75
2023/06/08 00:37:55;;;;;;;12.05;8.30;;;;;;;;;;4980104;28;20389;-74
2023/06/08 00:40:21;;;;;;;13.38;9.10;;;;;;;;;;4980458;28;20039;-74
2023/06/08 00:42:46;;;;;;;11.88;8.02;;;;;;;;;;4980610;28;20080;-74
2023/06/08 00:45:11;;;;;;;9.35;7.80;;;;;;;;;;4983913;28;20014;-73
2023/06/08 00:47:37;;;;;;;9.73;8.05;;;;;;;;;;4986255;28;20077;-73
2023/06/08 00:50:03;;;;;;;14.30;8.60;;;;;;;;;;4969533;28;20577;-74
2023/06/08 00:52:28;;;;;;;11.73;9.20;;;;;;;;;;4971502;28;20046;-73
2023/06/08 00:54:54;;;;;;;14.18;10.68;;;;;;;;;;4974198;28;20030;-72
2023/06/08 00:57:20;;;;;;;17.15;10.45;;;;;;;;;;4973227;28;20015;-75
2023/06/08 00:59:51;;;;;;;15.35;9.98;;;;;;;;;;4957447;28;20046;-74
2023/06/08 01:02:17;;;;;;;17.83;9.20;;;;;;;;;;4961336;28;20027;-74
2023/06/08 01:04:43;;;;;;;12.65;9.02;;;;;;;;;;4964582;28;20053;-75
2023/06/08 01:07:25;;;;;;;11.85;8.95;;;;;;;;;;4962236;28;20039;-73
2023/06/08 01:10:01;;;;;;;12.27;9.13;;;;;;;;;;4960963;28;20038;-74
2023/06/08 01:12:45;;;;;;;14.05;9.05;;;;;;;;;;4957293;28;20505;-74
2023/06/08 01:15:26;;;;;;;11.85;9.15;;;;;;;;;;4961580;28;20386;-74
2023/06/08 01:17:57;;;;;;;12.68;8.90;;;;;;;;;;4958250;28;20022;-74
2023/06/08 01:20:46;;;;;;;12.38;8.60;;;;;;;;;;4953311;28;20499;-74
2023/06/08 01:23:34;;;;;;;12.05;8.60;;;;;;;;;;4967823;28;20038;-74
2023/06/08 01:26:01;;;;;;;14.13;8.88;;;;;;;;;;4953631;28;20031;-74
2023/06/08 01:28:28;;;;;;;12.68;8.57;;;;;;;;;;4957291;28;20046;-74
2023/06/08 01:30:54;;;;;;;12.23;8.93;;;;;;;;;;4960138;28;20043;-74
2023/06/08 01:33:23;;;;;;;15.63;9.65;;;;;;;;;;4971628;28;20034;-75
2023/06/08 01:35:59;;;;;;;14.32;9.20;;;;;;;;;;4957505;28;20031;-73
2023/06/08 01:38:35;;;;;;;13.20;10.65;;;;;;;;;;4956988;28;20426;-73
2023/06/08 01:41:07;;;;;;;12.40;8.77;;;;;;;;;;4952435;28;20506;-73
2023/06/08 01:43:35;;;;;;;13.05;10.27;;;;;;;;;;4958266;28;20042;-73
2023/06/08 01:46:05;;;;;;;12.65;9.27;;;;;;;;;;4955353;28;20050;-75
2023/06/08 01:48:31;;;;;;;12.60;9.20;;;;;;;;;;4956807;28;20046;-74
2023/06/08 01:50:58;;;;;;;23.33;9.75;;;;;;;;;;4953242;28;20033;-74
2023/06/08 01:53:23;;;;;;;11.40;9.35;;;;;;;;;;4963039;28;20505;-74
2023/06/08 01:55:49;;;;;;;12.40;9.25;;;;;;;;;;4956855;28;20042;-74
2023/06/08 01:58:15;;;;;;;11.73;9.05;;;;;;;;;;4966808;28;20042;-73
2023/06/08 02:00:40;;;;;;;11.07;8.93;;;;;;;;;;4952351;28;20047;-74
2023/06/08 02:03:05;;;;;;;11.98;9.02;;;;;;;;;;4965537;28;20085;-74
2023/06/08 02:05:30;;;;;;;12.63;9.02;;;;;;;;;;4960791;28;20026;-74
2023/06/08 02:07:56;;;;;;;11.32;9.02;;;;;;;;;;4956718;28;20568;-74
2023/06/08 02:10:23;;;;;;;13.35;8.75;;;;;;;;;;4974869;28;20109;-74
2023/06/08 02:12:48;;;;;;;9.40;8.27;;;;;;;;;;4952547;28;20060;-74
2023/06/08 02:15:13;;;;;;;11.48;7.50;;;;;;;;;;4955109;28;20433;-75
2023/06/08 02:17:39;;;;;;;9.35;7.70;;;;;;;;;;4960447;28;20027;-75
2023/06/08 02:20:08;;;;;;;7.78;6.72;;;;;;;;;;4957732;28;20035;-75
2023/06/08 02:22:35;;;;;;;14.60;8.60;;;;;;;;;;4956585;28;20112;-75
2023/06/08 02:25:01;;;;;;;13.30;9.98;;;;;;;;;;4956242;28;20506;-74
2023/06/08 02:27:27;;;;;;;13.07;11.25;;;;;;;;;;4956656;28;20047;-74
2023/06/08 02:29:53;;;;;;;14.52;11.27;;;;;;;;;;4960676;28;20031;-75
2023/06/08 02:32:18;;;;;;;14.48;11.43;;;;;;;;;;4967133;28;20039;-75
2023/06/08 02:34:53;;;;;;;17.77;11.57;;;;;;;;;;4975586;28;20058;-75
2023/06/08 02:37:18;;;;;;;14.15;11.00;;;;;;;;;;4956717;28;20039;-75
2023/06/08 02:39:44;;;;;;;14.52;11.43;;;;;;;;;;4959951;28;20513;-75
2023/06/08 02:42:09;;;;;;;15.15;10.55;;;;;;;;;;4956008;28;20090;-74
2023/06/08 02:44:35;;;;;;;14.80;10.85;;;;;;;;;;4958210;28;21894;-74
2023/06/08 02:47:00;;;;;;;12.88;10.38;;;;;;;;;;4956116;28;20075;-74
2023/06/08 02:49:25;;;;;;;16.40;10.30;;;;;;;;;;4964521;28;20042;-75
2023/06/08 02:51:51;;;;;;;16.05;11.48;;;;;;;;;;4971065;28;20035;-74
2023/06/08 02:54:16;;;;;;;12.60;10.75;;;;;;;;;;4972331;28;20114;-75
2023/06/08 02:56:41;;;;;;;16.27;10.00;;;;;;;;;;4956414;28;20058;-74
2023/06/08 02:59:07;;;;;;;13.82;9.80;;;;;;;;;;4960314;28;20027;-74
2023/06/08 03:01:33;;;;;;;14.15;9.85;;;;;;;;;;4967025;28;20441;-75
2023/06/08 03:03:58;;;;;;;15.48;9.75;;;;;;;;;;4981266;28;20034;-75
2023/06/08 03:06:26;;;;;;;16.38;10.55;;;;;;;;;;4980842;28;20058;-74
2023/06/08 03:08:53;;;;;;;14.23;10.25;;;;;;;;;;4983459;28;20103;-75
2023/06/08 03:11:22;;;;;;;14.80;11.00;;;;;;;;;;4978557;28;20491;-74
2023/06/08 03:13:48;;;;;;;13.80;10.63;;;;;;;;;;4973113;28;20031;-74
2023/06/08 03:16:14;;;;;;;16.20;10.52;;;;;;;;;;4982297;28;20181;-76
2023/06/08 03:18:40;;;;;;;17.77;11.10;;;;;;;;;;4974418;28;20054;-75
2023/06/08 03:21:07;;;;;;;14.88;10.38;;;;;;;;;;4984898;28;20030;-75
2023/06/08 03:23:35;;;;;;;17.67;10.60;;;;;;;;;;4975101;28;20393;-75
2023/06/08 03:26:01;;;;;;;11.85;9.43;;;;;;;;;;4974553;28;20397;-74
2023/06/08 03:28:26;;;;;;;13.05;10.15;;;;;;;;;;4975851;28;20050;-75
2023/06/08 03:30:52;;;;;;;14.25;9.70;;;;;;;;;;4974439;28;20046;-75
2023/06/08 03:33:19;;;;;;;15.63;10.20;;;;;;;;;;4972289;28;20045;-75
2023/06/08 03:35:45;;;;;;;12.98;9.38;;;;;;;;;;4971314;28;20433;-75
2023/06/08 03:38:10;;;;;;;13.40;8.35;;;;;;;;;;4968530;28;20130;-75
2023/06/08 03:40:35;;;;;;;14.93;8.68;;;;;;;;;;4977534;28;20057;-75
2023/06/08 03:43:01;;;;;;;11.40;8.38;;;;;;;;;;4962908;28;20044;-75
2023/06/08 03:45:26;;;;;;;10.02;8.48;;;;;;;;;;4963332;28;20113;-79
2023/06/08 03:47:51;;;;;;;11.82;8.18;;;;;;;;;;4967514;28;20035;-75
2023/06/08 03:50:17;;;;;;;11.48;8.98;;;;;;;;;;4968709;28;20041;-75
2023/06/08 03:52:43;;;;;;;9.55;7.88;;;;;;;;;;4969648;28;20513;-75
2023/06/08 03:55:08;;;;;;;10.57;8.93;;;;;;;;;;4980296;28;20401;-75
2023/06/08 03:57:35;;;;;;;11.40;9.40;;;;;;;;;;4977392;28;20433;-76
2023/06/08 04:00:01;;;;;;;11.35;8.50;;;;;;;;;;4982680;28;20508;-76
2023/06/08 04:02:26;;;;;;;12.20;9.13;;;;;;;;;;4972715;28;20042;-76
2023/06/08 04:04:53;;;;;;;9.45;8.10;;;;;;;;;;4979305;28;20035;-76
2023/06/08 04:07:20;;;;;;;13.60;9.40;;;;;;;;;;4969275;28;20089;-75
2023/06/08 04:09:46;;;;;;;14.35;8.23;;;;;;;;;;4970223;28;20042;-76
2023/06/08 04:12:12;;;;;;;11.50;7.85;;;;;;;;;;4968557;28;20039;-75
2023/06/08 04:14:37;;;;;;;10.10;7.05;;;;;;;;;;4971031;28;20030;-75
2023/06/08 04:17:02;;;;;;;13.90;7.40;;;;;;;;;;4962299;28;20047;-75
2023/06/08 04:19:27;;;;;;;9.68;6.55;;;;;;;;;;4968013;28;20038;-75
2023/06/08 04:21:56;;;;;;;7.65;6.40;;;;;;;;;;4967878;28;20142;-75
2023/06/08 04:24:23;;;;;;;8.38;6.38;;;;;;;;;;4980283;28;20038;-75
2023/06/08 04:26:48;;;;;;;11.55;6.80;;;;;;;;;;4975503;28;20023;-75
2023/06/08 04:29:13;;;;;;;9.57;6.13;;;;;;;;;;4981853;28;20397;-75
2023/06/08 04:31:39;;;;;;;9.60;6.63;;;;;;;;;;4973078;28;20121;-75
2023/06/08 04:34:04;;;;;;;7.85;5.88;;;;;;;;;;4974517;28;20065;-75
2023/06/08 04:36:31;;;;;;;8.40;5.97;;;;;;;;;;4981861;28;20034;-75
2023/06/08 04:38:56;;;;;;;10.20;5.97;;;;;;;;;;4974236;28;20378;-76
2023/06/08 04:41:25;;;;;;;7.97;5.82;;;;;;;;;;4968741;28;20126;-75
2023/06/08 04:43:50;;;;;;;9.27;5.75;;;;;;;;;;4979194;28;20030;-76
2023/06/08 04:46:16;;;;;;;10.80;5.63;;;;;;;;;;4961956;28;20517;-75
2023/06/08 04:48:43;;;;;;;6.88;5.35;;;;;;;;;;4963084;28;20035;-75
2023/06/08 04:51:09;;;;;;;8.07;6.03;;;;;;;;;;4958275;28;20049;-75
2023/06/08 04:53:35;;;;;;;9.30;5.70;;;;;;;;;;4968160;28;20485;-76
2023/06/08 04:56:02;;;;;;;8.13;5.68;;;;;;;;;;4958778;28;20509;-75
2023/06/08 04:58:29;;;;;;;7.85;5.82;;;;;;;;;;4972894;28;20057;-76
2023/06/08 05:00:55;;;;;;;15.82;5.97;;;;;;;;;;4964257;28;20054;-75
2023/06/08 05:03:21;;;;;;;8.93;6.35;;;;;;;;;;4971530;28;20035;-75
2023/06/08 05:05:47;;;;;;;6.88;5.85;;;;;;;;;;4967170;28;20106;-75
2023/06/08 05:08:12;;;;;;;9.00;6.75;;;;;;;;;;4967387;28;20114;-75
2023/06/08 05:10:38;;;;;;;7.88;5.78;;;;;;;;;;4975964;28;20042;-75
2023/06/08 05:13:03;;;;;;;8.32;5.75;;;;;;;;;;4971319;28;20121;-75
2023/06/08 05:15:31;;;;;;;9.63;5.35;;;;;;;;;;4975714;28;20038;-75
2023/06/08 05:17:56;;;;;;;7.18;5.57;;;;;;;;;;4973283;28;20030;-80
2023/06/08 05:20:23;;;;;;;6.70;5.00;;;;;;;;;;4972247;28;20042;-76
2023/06/08 05:22:48;;;;;;;6.82;5.40;;;;;;;;;;4967756;28;20412;-75
2023/06/08 05:25:14;;;;;;;6.88;5.55;;;;;;;;;;4969387;28;20093;-76
2023/06/08 05:27:39;;;;;;;7.90;5.30;;;;;;;;;;4973788;28;20126;-76
2023/06/08 05:30:05;;;;;;;5.65;4.75;;;;;;;;;;4970920;28;20532;-75
2023/06/08 05:32:31;;;;;;;6.13;4.97;;;;;;;;;;4970784;28;20078;-76
2023/06/08 05:34:58;;;;;;;6.75;4.88;;;;;;;;;;4978449;28;20027;-76
2023/06/08 05:37:23;;;;;;;8.05;5.10;;;;;;;;;;4967998;28;20039;-76
2023/06/08 05:39:49;;;;;;;8.63;5.18;;;;;;;;;;4972203;28;20141;-76
2023/06/08 05:42:14;;;;;;;5.30;4.80;;;;;;;;;;4987973;28;20026;-76
2023/06/08 05:44:39;;;;;;;5.57;5.03;;;;;;;;;;4968447;28;20082;-75
2023/06/08 05:47:05;;;;;;;7.43;4.82;;;;;;;;;;4965209;28;20413;-74
2023/06/08 05:49:30;;;;;;;8.93;5.13;;;;;;;;;;4960742;28;20117;-75
2023/06/08 05:51:55;;;;;;;11.13;5.03;;;;;;;;;;4955537;28;20046;-75
2023/06/08 05:54:21;;;;;;;7.57;4.97;;;;;;;;;;4968505;28;20027;-74
2023/06/08 05:56:46;;;;;;;12.38;5.20;;;;;;;;;;4962986;28;20070;-74
2023/06/08 05:59:11;;;;;;;7.07;5.03;;;;;;;;;;4967557;28;20039;-75
2023/06/08 06:01:37;;;;;;;7.82;5.32;;;;;;;;;;4962074;28;20030;-76
2023/06/08 06:04:02;;;;;;;5.38;4.50;;;;;;;;;;4960380;28;20082;-76
2023/06/08 06:06:28;;;;;;;5.90;4.43;;;;;;;;;;4960212;28;20050;-76
2023/06/08 06:08:53;;;;;;;5.32;4.47;;;;;;;;;;4965043;28;20194;-75
2023/06/08 06:11:18;;;;;;;7.50;5.10;;;;;;;;;;4962312;28;20031;-75
2023/06/08 06:13:44;;;;;;;8.88;5.03;;;;;;;;;;4961267;28;20138;-75
2023/06/08 06:16:09;;;;;;;5.55;4.90;;;;;;;;;;4967525;28;20126;-76
2023/06/08 06:18:34;;;;;;;8.07;5.05;;;;;;;;;;4964747;28;20524;-75
2023/06/08 06:21:00;;;;;;;5.18;4.55;;;;;;;;;;4962400;28;20038;-76
2023/06/08 06:23:25;;;;;;;7.80;5.18;;;;;;;;;;4971875;28;20043;-76
2023/06/08 06:25:51;;;;;;;6.15;5.25;;;;;;;;;;4968957;28;20041;-76
2023/06/08 06:28:16;;;;;;;10.23;4.65;;;;;;;;;;4962063;28;20035;-76
2023/06/08 06:30:41;;;;;;;6.55;4.82;;;;;;;;;;4973992;28;20069;-76
2023/06/08 06:33:06;;;;;;;5.85;5.03;;;;;;;;;;4962440;28;20027;-76
2023/06/08 06:35:32;;;;;;;5.15;4.30;;;;;;;;;;4967317;28;20482;-76
2023/06/08 06:37:57;;;;;;;7.13;4.20;;;;;;;;;;4965147;28;20035;-76
2023/06/08 06:40:23;;;;;;;6.13;4.78;;;;;;;;;;4961946;28;20032;-76
2023/06/08 06:42:48;;;;;;;6.05;4.80;;;;;;;;;;4959407;28;20047;-76
2023/06/08 06:45:14;;;;;;;11.95;4.65;;;;;;;;;;4964161;28;20047;-76
2023/06/08 06:47:39;;;;;;;8.05;4.57;;;;;;;;;;4954364;28;20034;-76
2023/06/08 06:50:06;;;;;;;4.80;4.40;;;;;;;;;;4966972;28;20043;-76
2023/06/08 06:52:32;;;;;;;5.30;4.80;;;;;;;;;;4966920;28;20039;-76
2023/06/08 06:54:58;;;;;;;5.90;4.75;;;;;;;;;;4960710;28;20121;-75
2023/06/08 06:57:23;;;;;;;9.70;4.93;;;;;;;;;;4955866;28;20047;-75
2023/06/08 06:59:50;;;;;;;6.63;4.50;;;;;;;;;;4965777;28;20030;-75
2023/06/08 07:02:15;;;;;;;6.85;4.60;;;;;;;;;;4958931;28;20130;-76
2023/06/08 07:04:41;;;;;;;5.88;4.72;;;;;;;;;;4967534;28;20525;-76
2023/06/08 07:07:07;;;;;;;11.32;4.57;;;;;;;;;;4974606;28;20034;-76
2023/06/08 07:09:32;;;;;;;8.70;4.47;;;;;;;;;;4973745;28;20161;-76
2023/06/08 07:11:58;;;;;;;5.07;4.57;;;;;;;;;;4964050;28;20034;-76
2023/06/08 07:14:24;;;;;;;5.85;4.75;;;;;;;;;;4958602;28;20473;-76
2023/06/08 07:16:50;;;;;;;5.43;4.28;;;;;;;;;;4972527;28;20155;-76
2023/06/08 07:19:15;;;;;;;5.10;4.03;;;;;;;;;;4970433;28;20055;-76
2023/06/08 07:21:40;;;;;;;5.72;4.55;;;;;;;;;;4968753;28;20390;-76
2023/06/08 07:24:06;;;;;;;16.40;4.60;;;;;;;;;;4974206;28;20496;-76
2023/06/08 07:26:31;;;;;;;8.23;4.75;;;;;;;;;;4971784;28;20097;-76
2023/06/08 07:29:01;;;;;;;5.18;4.65;;;;;;;;;;4970303;28;20031;-76
2023/06/08 07:31:29;;;;;;;8.20;4.50;;;;;;;;;;4965851;28;20047;-76
2023/06/08 07:33:56;;;;;;;5.30;4.78;;;;;;;;;;4973107;28;20031;-76
2023/06/08 07:36:22;;;;;;;5.63;5.00;;;;;;;;;;4974407;28;20469;-76
2023/06/08 07:38:50;;;;;;;5.65;4.78;;;;;;;;;;4969420;28;20028;-76
2023/06/08 07:41:19;;;;;;;5.20;4.70;;;;;;;;;;4972390;28;20030;-77
2023/06/08 07:43:45;;;;;;;6.43;4.43;;;;;;;;;;4964660;28;20035;-76
2023/06/08 07:46:11;;;;;;;4.80;4.30;;;;;;;;;;4969466;28;20039;-76
2023/06/08 07:48:36;;;;;;;8.35;4.30;;;;;;;;;;4970449;28;20406;-76
2023/06/08 07:51:01;;;;;;;5.75;4.70;;;;;;;;;;4978150;28;20026;-76
2023/06/08 07:53:34;;;;;;;4.70;4.25;;;;;;;;;;4974613;28;20125;-76
2023/06/08 07:56:00;;;;;;;11.83;4.87;;;;;;;;;;4963291;28;20019;-76
2023/06/08 07:58:26;;;;;;;10.38;4.43;;;;;;;;;;4960206;28;20039;-76
2023/06/08 08:00:51;;;;;;;8.10;4.22;;;;;;;;;;4956332;28;20047;-76
2023/06/08 08:03:16;;;;;;;7.10;4.55;;;;;;;;;;4965802;28;20038;-76
2023/06/08 08:05:42;;;;;;;5.10;3.92;;;;;;;;;;4971419;28;20033;-76
2023/06/08 08:08:07;;;;;;;5.50;3.97;;;;;;;;;;4969324;28;20090;-77
2023/06/08 08:10:32;;;;;;;5.05;4.18;;;;;;;;;;4965080;28;20516;-76
2023/06/08 08:12:57;;;;;;;9.48;4.03;;;;;;;;;;4965095;28;20045;-76
2023/06/08 08:15:23;;;;;;;5.50;4.40;;;;;;;;;;4957535;28;20042;-76
2023/06/08 08:17:49;;;;;;;6.00;4.40;;;;;;;;;;4970427;28;20393;-77
2023/06/08 08:20:14;;;;;;;4.82;4.20;;;;;;;;;;4954823;28;20106;-76
2023/06/08 08:22:39;;;;;;;7.57;4.38;;;;;;;;;;4960874;28;20103;-76
2023/06/08 08:25:05;;;;;;;6.13;4.30;;;;;;;;;;4958374;28;20532;-76
2023/06/08 08:27:31;;;;;;;4.60;4.20;;;;;;;;;;4967172;28;20385;-76
2023/06/08 08:29:56;;;;;;;5.13;4.13;;;;;;;;;;4960374;28;20031;-76
2023/06/08 08:32:23;;;;;;;7.85;4.60;;;;;;;;;;4967875;28;20055;-76
2023/06/08 08:34:50;;;;;;;4.82;4.00;;;;;;;;;;4985637;28;20058;-76
2023/06/08 08:37:17;;;;;;;6.43;4.10;;;;;;;;;;4971258;28;20042;-76
2023/06/08 08:39:42;;;;;;;3.97;3.60;;;;;;;;;;4973127;28;20396;-76
2023/06/08 08:42:10;;;;;;;4.72;4.10;;;;;;;;;;4968582;28;20027;-76
2023/06/08 08:44:36;;;;;;;4.88;4.20;;;;;;;;;;4965133;28;20042;-76
2023/06/08 08:47:04;;;;;;;7.28;4.18;;;;;;;;;;4961316;28;20028;-76
2023/06/08 08:49:32;;;;;;;4.97;3.72;;;;;;;;;;4963350;28;20686;-76
2023/06/08 08:52:01;;;;;;;5.40;3.90;;;;;;;;;;4961375;28;20517;-76
2023/06/08 08:54:33;;;;;;;6.53;3.90;;;;;;;;;;4961508;28;20047;-75
2023/06/08 08:57:00;;;;;;;4.50;3.80;;;;;;;;;;4969218;28;20654;-75
2023/06/08 08:59:29;;;;;;;6.32;3.95;;;;;;;;;;4960686;28;20393;-75
2023/06/08 09:01:55;;;;;;;6.72;4.10;;;;;;;;;;4960090;28;20035;-75
2023/06/08 09:04:20;;;;;;;4.45;3.33;;;;;;;;;;4960389;28;20031;-76
2023/06/08 09:06:48;;;;;;;4.10;3.70;;;;;;;;;;4958832;28;20054;-76
2023/06/08 09:09:13;;;;;;;5.65;3.60;;;;;;;;;;4953447;28;20023;-76
2023/06/08 09:11:58;;;;;;;7.63;3.55;;;;;;;;;;4965318;28;20026;-76
2023/06/08 09:14:24;;;;;;;5.03;4.13;;;;;;;;;;4958440;28;20130;-76
2023/06/08 09:16:50;;;;;;;7.40;4.22;;;;;;;;;;4961115;28;20074;-76
2023/06/08 09:19:15;;;;;;;4.20;3.80;;;;;;;;;;4957373;28;20061;-76
2023/06/08 09:21:41;;;;;;;7.63;3.50;;;;;;;;;;4962472;28;20046;-76
2023/06/08 09:24:18;;;;;;;4.28;3.88;;;;;;;;;;4963302;28;20101;-76
2023/06/08 09:26:46;;;;;;;4.93;3.90;;;;;;;;;;4964215;28;20027;-77
2023/06/08 09:29:35;;;;;;;4.57;3.95;;;;;;;;;;4967363;28;20401;-76
2023/06/08 09:32:03;;;;;;;6.00;3.42;;;;;;;;;;4959407;28;20546;-76
2023/06/08 09:34:29;;;;;;;5.03;4.18;;;;;;;;;;4971889;28;20047;-75
2023/06/08 09:37:06;;;;;;;4.25;3.83;;;;;;;;;;4968947;28;20417;-77
2023/06/08 09:39:42;;;;;;;6.65;3.83;;;;;;;;;;4969029;28;20054;-76
2023/06/08 09:42:08;;;;;;;4.20;3.80;;;;;;;;;;4968822;28;20551;-76
2023/06/08 09:44:35;;;;;;;6.18;3.70;;;;;;;;;;4971820;28;20030;-76
2023/06/08 09:47:18;;;;;;;5.05;3.65;;;;;;;;;;4973763;28;20097;-76
2023/06/08 09:49:44;;;;;;;9.02;4.03;;;;;;;;;;4975568;28;20043;-76
2023/06/08 09:52:09;;;;;;;4.38;3.72;;;;;;;;;;4972739;28;20034;-76
2023/06/08 09:54:36;;;;;;;3.92;3.53;;;;;;;;;;4968502;28;20043;-76
2023/06/08 09:57:02;;;;;;;3.67;3.38;;;;;;;;;;4973893;28;20019;-76
2023/06/08 09:59:36;;;;;;;4.20;3.80;;;;;;;;;;4965261;28;20039;-76
2023/06/08 10:02:34;;;;;;;5.35;3.15;;;;;;;;;;4965321;28;20039;-77
2023/06/08 10:05:09;;;;;;;4.50;3.40;;;;;;;;;;4967443;28;20093;-76
2023/06/08 10:07:35;;;;;;;7.90;3.80;;;;;;;;;;4971452;28;20524;-76
2023/06/08 10:10:13;;;;;;;3.53;3.22;;;;;;;;;;4964249;28;20038;-76
2023/06/08 10:12:39;;;;;;;4.43;3.72;;;;;;;;;;4970347;28;20062;-76
2023/06/08 10:15:06;;;;;;;4.15;3.50;;;;;;;;;;4979750;28;20500;-76
2023/06/08 10:17:33;;;;;;;5.00;3.30;;;;;;;;;;4971428;28;20038;-76
2023/06/08 10:19:58;;;;;;;3.85;3.50;;;;;;;;;;4976334;28;20496;-76
2023/06/08 10:22:25;;;;;;;4.18;3.45;;;;;;;;;;4967590;28;20066;-76
2023/06/08 10:24:51;;;;;;;3.90;3.40;;;;;;;;;;4968382;28;20050;-77
2023/06/08 10:27:23;;;;;;;4.63;3.25;;;;;;;;;;4974610;28;20019;-76
2023/06/08 10:30:00;;;;;;;5.82;3.90;;;;;;;;;;4980556;28;20375;-76
2023/06/08 10:32:30;;;;;;;6.35;3.85;;;;;;;;;;4970873;28;20046;-76
2023/06/08 10:34:57;;;;;;;3.75;3.42;;;;;;;;;;4966912;28;20396;-78
2023/06/08 10:37:27;;;;;;;3.72;3.13;;;;;;;;;;4972506;28;20094;-77
2023/06/08 10:39:52;;;;;;;3.47;3.10;;;;;;;;;;4973719;28;20089;-76
2023/06/08 10:42:18;;;;;;;4.93;3.60;;;;;;;;;;4991279;28;20038;-77
2023/06/08 10:44:51;;;;;;;3.88;3.50;;;;;;;;;;4984022;28;20113;-76
2023/06/08 10:47:17;;;;;;;4.70;3.42;;;;;;;;;;4979124;28;20716;-76
2023/06/08 10:49:45;;;;;;;5.32;3.65;;;;;;;;;;4975327;28;20069;-76
2023/06/08 10:52:17;;;;;;;3.50;3.20;;;;;;;;;;4970821;28;20054;-76
2023/06/08 10:54:49;;;;;;;5.15;4.10;;;;;;;;;;4975679;28;20063;-76
2023/06/08 10:57:43;;;;;;;4.13;3.53;;;;;;;;;;4975842;28;20061;-76
2023/06/08 11:00:22;;;;;;;7.22;3.38;;;;;;;;;;4980879;28;20081;-76
2023/06/08 11:02:48;;;;;;;4.10;3.70;;;;;;;;;;4985691;28;20030;-76
2023/06/08 11:05:14;;;;;;;4.45;3.40;;;;;;;;;;4980276;28;20049;-76
2023/06/08 11:07:40;;;;;;;7.80;3.80;;;;;;;;;;4973380;28;20604;-76
2023/06/08 11:10:06;;;;;;;3.45;3.15;;;;;;;;;;4975090;28;20035;-77
2023/06/08 11:12:31;;;;;;;6.82;3.45;;;;;;;;;;4974259;28;20062;-76
2023/06/08 11:14:57;;;;;;;3.75;3.35;;;;;;;;;;4983105;28;20026;-76
2023/06/08 11:17:22;;;;;;;6.00;3.72;;;;;;;;;;4973246;28;20070;-75
2023/06/08 11:19:47;;;;;;;3.15;2.83;;;;;;;;;;4974976;28;20046;-77
2023/06/08 11:22:13;;;;;;;3.78;3.42;;;;;;;;;;4974912;28;20027;-76
2023/06/08 11:24:38;;;;;;;4.10;3.70;;;;;;;;;;4973244;28;20047;-76
2023/06/08 11:27:04;;;;;;;3.95;3.60;;;;;;;;;;4970307;28;20019;-76
2023/06/08 11:29:30;;;;;;;5.68;3.70;;;;;;;;;;4963740;28;20023;-77
2023/06/08 11:32:09;;;;;;;5.15;3.80;;;;;;;;;;4973255;28;20046;-76
2023/06/08 11:34:34;;;;;;;6.30;3.88;;;;;;;;;;4981507;28;20124;-76
2023/06/08 11:37:00;;;;;;;3.75;3.15;;;;;;;;;;4982873;28;20030;-76
2023/06/08 11:39:29;;;;;;;3.50;3.15;;;;;;;;;;4974565;28;20035;-75
2023/06/08 11:41:54;;;;;;;4.65;4.03;;;;;;;;;;4981998;28;20042;-75
2023/06/08 11:44:20;;;;;;;5.82;3.38;;;;;;;;;;4974339;28;20477;-75
2023/06/08 11:46:45;;;;;;;4.80;3.45;;;;;;;;;;4967402;28;20039;-76
2023/06/08 11:49:11;;;;;;;3.80;3.50;;;;;;;;;;4982384;28;20027;-77
2023/06/08 11:51:47;;;;;;;3.75;3.42;;;;;;;;;;4974091;28;20093;-76
2023/06/08 11:54:13;;;;;;;6.00;3.75;;;;;;;;;;4982469;28;20026;-76
2023/06/08 11:56:38;;;;;;;6.82;3.58;;;;;;;;;;4982516;28;20022;-76
2023/06/08 11:59:04;;;;;;;3.83;3.47;;;;;;;;;;4974961;28;20027;-76
2023/06/08 12:01:30;;;;;;;4.20;3.78;;;;;;;;;;4973966;28;20055;-76
2023/06/08 12:03:56;;;;;;;6.18;3.10;;;;;;;;;;4982044;28;20035;-76
2023/06/08 12:06:25;;;;;;;3.70;3.40;;;;;;;;;;4972497;28;20065;-75
2023/06/08 12:08:53;;;;;;;6.10;3.13;;;;;;;;;;4985029;28;20033;-75
2023/06/08 12:11:19;;;;;;;4.15;3.33;;;;;;;;;;5000207;28;20041;-76
2023/06/08 12:13:44;;;;;;;4.80;3.47;;;;;;;;;;4991485;28;20038;-75
2023/06/08 12:16:10;;;;;;;5.32;3.67;;;;;;;;;;4971792;28;20031;-75
2023/06/08 12:18:40;;;;;;;4.00;3.28;;;;;;;;;;4981708;28;20074;-75
2023/06/08 12:21:08;;;;;;;4.70;3.60;;;;;;;;;;4978991;28;20018;-75
2023/06/08 12:23:34;;;;;;;4.53;3.30;;;;;;;;;;4992004;28;20077;-77
2023/06/08 12:26:00;;;;;;;4.07;3.67;;;;;;;;;;4974219;28;20672;-76
2023/06/08 12:28:25;;;;;;;3.97;3.55;;;;;;;;;;4980535;28;20031;-75
2023/06/08 12:30:52;;;;;;;5.95;3.90;;;;;;;;;;4973550;28;20030;-75
2023/06/08 12:33:18;;;;;;;4.63;3.85;;;;;;;;;;4969563;28;20514;-75
2023/06/08 12:35:45;;;;;;;7.53;4.10;;;;;;;;;;4974205;28;20553;-75
2023/06/08 12:38:10;;;;;;;4.20;3.65;;;;;;;;;;4978369;28;20118;-77
2023/06/08 12:40:36;;;;;;;4.60;3.83;;;;;;;;;;4976224;28;20066;-76
2023/06/08 12:43:01;;;;;;;4.55;3.67;;;;;;;;;;4964271;28;20055;-76
2023/06/08 12:45:28;;;;;;;6.88;3.90;;;;;;;;;;4977495;28;20043;-76
2023/06/08 12:47:53;;;;;;;7.70;3.60;;;;;;;;;;4966262;28;20042;-77
2023/06/08 12:50:25;;;;;;;7.38;3.88;;;;;;;;;;4965844;28;20057;-76
2023/06/08 12:52:51;;;;;;;5.72;3.83;;;;;;;;;;4973923;28;20046;-75
2023/06/08 12:55:17;;;;;;;4.63;3.72;;;;;;;;;;4979374;28;20030;-75
2023/06/08 12:57:43;;;;;;;5.95;3.95;;;;;;;;;;4991068;28;20173;-76
2023/06/08 13:00:10;;;;;;;7.25;3.88;;;;;;;;;;4973624;28;20113;-77
2023/06/08 13:02:35;;;;;;;4.13;3.75;;;;;;;;;;4978121;28;20092;-76
2023/06/08 13:05:00;;;;;;;4.68;3.75;;;;;;;;;;4985056;28;20102;-76
2023/06/08 13:07:26;;;;;;;3.85;3.45;;;;;;;;;;4970694;28;20551;-76
2023/06/08 13:09:54;;;;;;;6.82;3.67;;;;;;;;;;4975506;28;20031;-76
2023/06/08 13:12:20;;;;;;;4.53;3.40;;;;;;;;;;4977488;28;20068;-76
2023/06/08 13:14:45;;;;;;;4.10;3.47;;;;;;;;;;4968113;28;20405;-77
2023/06/08 13:17:10;;;;;;;4.15;3.38;;;;;;;;;;4983044;28;20094;-77
2023/06/08 13:19:36;;;;;;;4.88;3.97;;;;;;;;;;4971201;28;20031;-76
2023/06/08 13:22:02;;;;;;;5.15;4.00;;;;;;;;;;4965450;28;20035;-75
2023/06/08 13:24:27;;;;;;;5.32;3.60;;;;;;;;;;4970132;28;20031;-75
2023/06/08 13:26:54;;;;;;;3.78;3.47;;;;;;;;;;4955457;28;20028;-76
2023/06/08 13:29:21;;;;;;;5.15;3.58;;;;;;;;;;4967461;28;20038;-77
2023/06/08 13:31:46;;;;;;;3.65;3.15;;;;;;;;;;4972026;28;20086;-76
2023/06/08 13:34:11;;;;;;;3.40;3.08;;;;;;;;;;4953867;28;20070;-77
2023/06/08 13:36:37;;;;;;;7.57;3.35;;;;;;;;;;4961819;28;20449;-76
2023/06/08 13:39:03;;;;;;;6.22;3.78;;;;;;;;;;4964757;28;20022;-75
2023/06/08 13:41:33;;;;;;;3.55;3.22;;;;;;;;;;4958714;28;20055;-76
2023/06/08 13:43:59;;;;;;;4.95;3.72;;;;;;;;;;4958325;28;20031;-76
2023/06/08 13:46:24;;;;;;;9.30;3.70;;;;;;;;;;4960886;28;20039;-75
2023/06/08 13:48:50;;;;;;;8.80;3.60;;;;;;;;;;4975292;28;20035;-75
2023/06/08 13:51:15;;;;;;;4.07;3.63;;;;;;;;;;4952830;28;20022;-76
2023/06/08 13:53:40;;;;;;;3.63;3.33;;;;;;;;;;4961235;28;20034;-76
2023/06/08 13:56:06;;;;;;;6.43;3.92;;;;;;;;;;4962912;28;20030;-75
2023/06/08 13:58:31;;;;;;;3.92;3.47;;;;;;;;;;4963074;28;20090;-75
2023/06/08 14:00:56;;;;;;;8.98;3.40;;;;;;;;;;4958021;28;20069;-76
2023/06/08 14:03:22;;;;;;;4.05;3.65;;;;;;;;;;4960051;28;20050;-76
2023/06/08 14:05:47;;;;;;;7.45;3.97;;;;;;;;;;4962752;28;20043;-75
2023/06/08 14:08:12;;;;;;;3.80;3.50;;;;;;;;;;4960275;28;20024;-75
2023/06/08 14:10:38;;;;;;;3.80;3.50;;;;;;;;;;4954324;28;20042;-76
2023/06/08 14:13:04;;;;;;;4.30;3.78;;;;;;;;;;4962830;28;20034;-76
2023/06/08 14:15:29;;;;;;;5.57;3.83;;;;;;;;;;4962438;28;20043;-75
2023/06/08 14:17:56;;;;;;;3.75;3.45;;;;;;;;;;4959507;28;20035;-75
2023/06/08 14:20:22;;;;;;;5.05;3.70;;;;;;;;;;4971118;28;20035;-75
2023/06/08 14:22:49;;;;;;;4.40;3.60;;;;;;;;;;4962138;28;20039;-76
2023/06/08 14:25:14;;;;;;;4.30;3.63;;;;;;;;;;4965398;28;20503;-75
2023/06/08 14:27:39;;;;;;;3.53;3.22;;;;;;;;;;4958406;28;20031;-75
2023/06/08 14:30:06;;;;;;;3.72;3.42;;;;;;;;;;4974493;28;20034;-76
2023/06/08 14:32:31;;;;;;;3.80;3.50;;;;;;;;;;4978197;28;20036;-76
2023/06/08 14:34:56;;;;;;;5.45;3.55;;;;;;;;;;4972721;28;20409;-76
2023/06/08 14:37:21;;;;;;;4.35;3.63;;;;;;;;;;4968885;28;20046;-75